GEV weather

Ashe County Airport
Jefferson, North Carolina, United States

Public forecast

Using degrees Fahrenheit for public forecast. Weather courtesy of forecast.io.

Current aviation weather report (METAR) for Ashe County Airport

Retrieved 2019/10/21 19:35 UTC (0 seconds ago):

KGEV 211935Z AUTO 00000KT 5SM BR OVC003 13/13 A3007 RMK AO2 T01280128

Closest aviation forecast (TAF) to Ashe County Airport

Closest forecast is Hickory Regional Airport, 41.5 nm (76.9 km) S. Retrieved 2019/10/21 18:34 UTC (27 minutes ago):

TAF KHKY 211731Z 2118/2218 VRB03KT P6SM OVC012 TEMPO 2118/2120 OVC009 FM212100 15004KT P6SM OVC022 FM220600 13005KT 3SM -SHRA BR OVC006 FM221200 17007KT 1SM -SHRA BR OVC003 FM221500 21007KT 5SM -SHRA BR BKN006 FM221700 28006KT P6SM -SHRA BKN030